ENBL

Bringeland Airport

Førde, Norway
METAR ENBL 231050Z 23007KT 9999 FEW040 21/05 Q1024
Observed Flight Rules
May-23 @ 10:50 UTC (19 minutes ago) Visual Flight Rules
Wind Visibility Clouds
230° at 7 knots 10,000+ meters
  • Few at 4,000' AGL
Temperatures Readings
Current 21°C / 70°F
Dewpoint 5°C / 41°F
Humidity 35%
Altimeter 30.24" Hg
Pressure 1024 hPa
Elevation 150
METAR ENBL 231050Z 23007KT 9999 FEW040 21/05 Q1024
Observed Flight Rules
May-23 @ 10:50 UTC
(19 minutes ago)
VFR
Wind Visibility
230° at 7 knots 10,000+ meters
Clouds
  • Few at 4,000' AGL
Temperature Dewpoint
21°C / 70°F 5°C / 41°F
Humidity Altimeter Pressure
35% 30.24" Hg 1024 hPa